createdAt,value
2022-12-09T00:01:09.117Z,17.05
2022-12-09T00:03:36.443Z,12.57
2022-12-09T00:06:11.411Z,8.48
2022-12-09T00:08:38.676Z,9.15
2022-12-09T00:11:06.644Z,8.70
2022-12-09T00:13:34.088Z,9.23
2022-12-09T00:16:01.314Z,8.65
2022-12-09T00:18:28.484Z,8.40
2022-12-09T00:20:55.661Z,8.50
2022-12-09T00:23:22.883Z,8.18
2022-12-09T00:25:50.154Z,8.02
2022-12-09T00:28:17.295Z,7.93
2022-12-09T00:30:44.543Z,7.25
2022-12-09T00:33:11.733Z,6.63
2022-12-09T00:35:38.864Z,7.72
2022-12-09T00:38:06.000Z,7.72
2022-12-09T00:40:33.340Z,7.63
2022-12-09T00:43:00.648Z,7.70
2022-12-09T00:45:27.889Z,7.70
2022-12-09T00:47:55.215Z,7.72
2022-12-09T00:50:22.592Z,7.35
2022-12-09T00:52:49.854Z,8.00
2022-12-09T00:55:17.416Z,8.05
2022-12-09T00:57:44.694Z,7.75
2022-12-09T01:00:12.413Z,7.47
2022-12-09T01:02:39.993Z,8.00
2022-12-09T01:05:07.617Z,8.57
2022-12-09T01:07:37.545Z,7.72
2022-12-09T01:10:06.474Z,8.48
2022-12-09T01:12:34.536Z,7.90
2022-12-09T01:15:01.793Z,9.00
2022-12-09T01:17:29.085Z,9.10
2022-12-09T01:19:56.819Z,7.85
2022-12-09T01:22:24.336Z,8.93
2022-12-09T01:24:51.860Z,8.40
2022-12-09T01:27:19.143Z,8.30
2022-12-09T01:29:46.297Z,8.15
2022-12-09T01:32:13.652Z,8.65
2022-12-09T01:34:40.977Z,8.05
2022-12-09T01:37:08.091Z,8.43
2022-12-09T01:39:35.588Z,7.60
2022-12-09T01:42:03.853Z,8.70
2022-12-09T01:44:32.019Z,8.20
2022-12-09T01:47:00.841Z,8.20
2022-12-09T01:49:43.212Z,8.85
2022-12-09T01:52:20.293Z,8.90
2022-12-09T01:54:48.462Z,9.38
2022-12-09T01:57:15.962Z,9.18
2022-12-09T01:59:43.716Z,9.70
2022-12-09T02:02:14.475Z,9.27
2022-12-09T02:04:46.154Z,8.98
2022-12-09T02:07:13.922Z,9.48
2022-12-09T02:09:41.533Z,9.18
2022-12-09T02:12:22.385Z,9.18
2022-12-09T02:14:49.654Z,9.02
2022-12-09T02:17:37.169Z,8.65
2022-12-09T02:20:09.715Z,8.90
2022-12-09T02:22:45.465Z,8.52
2022-12-09T02:25:39.382Z,8.05
2022-12-09T02:28:25.316Z,8.30
2022-12-09T02:30:58.541Z,8.25
2022-12-09T02:33:36.234Z,7.97
2022-12-09T02:36:08.747Z,8.70
2022-12-09T02:41:04.326Z,7.60
2022-12-09T02:43:34.918Z,8.25
2022-12-09T02:46:02.879Z,8.38
2022-12-09T02:48:36.475Z,8.20
2022-12-09T02:51:15.877Z,8.77
2022-12-09T02:53:44.478Z,8.73
2022-12-09T02:56:12.173Z,9.63
2022-12-09T02:58:39.323Z,9.60
2022-12-09T03:01:07.356Z,9.05
2022-12-09T03:03:35.341Z,10.40
2022-12-09T03:06:07.679Z,9.40
2022-12-09T03:08:34.944Z,10.02
2022-12-09T03:11:02.327Z,9.70
2022-12-09T03:13:35.636Z,10.25
2022-12-09T03:16:08.255Z,10.73
2022-12-09T03:18:37.154Z,11.02
2022-12-09T03:21:04.839Z,11.27
2022-12-09T03:23:32.126Z,10.88
2022-12-09T03:25:59.662Z,11.10
2022-12-09T03:28:32.066Z,10.15
2022-12-09T03:31:03.779Z,9.85
2022-12-09T03:33:32.451Z,9.98
2022-12-09T03:36:02.720Z,9.32
2022-12-09T03:38:32.212Z,9.75
2022-12-09T03:41:16.033Z,11.73
2022-12-09T03:43:48.198Z,11.90
2022-12-09T03:46:15.592Z,10.60
2022-12-09T03:48:42.866Z,10.82
2022-12-09T03:51:13.705Z,12.30
2022-12-09T03:53:45.594Z,10.85
2022-12-09T03:56:23.797Z,12.15
2022-12-09T03:58:53.851Z,12.43
2022-12-09T04:01:22.422Z,12.85
2022-12-09T04:03:50.803Z,56.60
2022-12-09T04:06:18.385Z,21.23
2022-12-09T04:08:45.755Z,14.98
2022-12-09T04:11:13.114Z,12.48
2022-12-09T04:13:40.624Z,12.00
2022-12-09T04:16:07.928Z,12.23
2022-12-09T04:18:35.379Z,11.57
2022-12-09T04:21:06.082Z,11.90
2022-12-09T04:23:36.709Z,12.57
2022-12-09T04:26:06.550Z,11.95
2022-12-09T04:28:33.749Z,13.43
2022-12-09T04:31:01.808Z,12.73
2022-12-09T04:33:29.020Z,13.18
2022-12-09T04:35:56.579Z,12.98
2022-12-09T04:38:24.006Z,11.32
2022-12-09T04:40:51.347Z,14.02
2022-12-09T04:43:18.610Z,18.65
2022-12-09T04:45:45.956Z,35.40
2022-12-09T04:48:13.154Z,28.88
2022-12-09T04:50:41.818Z,21.85
2022-12-09T04:53:09.053Z,17.73
2022-12-09T04:55:36.243Z,17.63
2022-12-09T04:58:03.941Z,17.27
2022-12-09T05:00:31.229Z,14.65
2022-12-09T05:02:58.942Z,16.15
2022-12-09T05:05:26.287Z,15.82
2022-12-09T05:07:54.156Z,15.70
2022-12-09T05:10:21.567Z,16.35
2022-12-09T05:12:49.218Z,17.15
2022-12-09T05:15:16.826Z,16.50
2022-12-09T05:17:44.565Z,17.23
2022-12-09T05:20:13.166Z,16.17
2022-12-09T05:22:41.131Z,18.08
2022-12-09T05:25:08.545Z,16.75
2022-12-09T05:27:36.101Z,16.75
2022-12-09T05:30:03.463Z,15.50
2022-12-09T05:32:30.936Z,14.90
2022-12-09T05:34:58.525Z,14.60
2022-12-09T05:37:25.797Z,14.73
2022-12-09T05:39:53.108Z,14.05
2022-12-09T05:42:20.567Z,15.15
2022-12-09T05:44:48.208Z,14.90
2022-12-09T05:47:15.717Z,13.85
2022-12-09T05:49:43.177Z,15.88
2022-12-09T05:52:14.380Z,15.52
2022-12-09T05:54:42.489Z,15.73
2022-12-09T05:57:10.030Z,17.42
2022-12-09T05:59:37.653Z,16.33
2022-12-09T06:02:09.729Z,16.77
2022-12-09T06:04:37.657Z,15.90
2022-12-09T06:07:05.334Z,18.13
2022-12-09T06:09:33.020Z,17.20
2022-12-09T06:12:00.680Z,17.33
2022-12-09T06:14:28.049Z,15.27
2022-12-09T06:16:55.356Z,17.55
2022-12-09T06:19:23.281Z,16.88
2022-12-09T06:21:50.672Z,15.82
2022-12-09T06:24:17.857Z,14.57
2022-12-09T06:26:45.014Z,15.13
2022-12-09T06:29:12.268Z,15.32
2022-12-09T06:31:39.537Z,14.35
2022-12-09T06:34:07.549Z,15.13
2022-12-09T06:36:35.038Z,15.65
2022-12-09T06:39:09.596Z,15.23
2022-12-09T06:41:37.900Z,15.20
2022-12-09T06:44:05.511Z,16.20
2022-12-09T06:46:33.047Z,16.67
2022-12-09T06:49:00.398Z,22.35
2022-12-09T06:51:28.167Z,16.35
2022-12-09T06:53:56.028Z,14.73
2022-12-09T06:56:24.033Z,15.88
2022-12-09T06:58:52.030Z,18.20
2022-12-09T07:01:23.852Z,15.60
2022-12-09T07:03:53.677Z,28.13
2022-12-09T07:06:24.426Z,26.60
2022-12-09T07:08:51.822Z,17.95
2022-12-09T07:11:19.207Z,20.83
2022-12-09T07:13:46.695Z,15.43
2022-12-09T07:16:14.228Z,16.15
2022-12-09T07:18:42.270Z,16.70
2022-12-09T07:21:10.710Z,16.63
2022-12-09T07:23:38.328Z,17.25
2022-12-09T07:26:07.422Z,18.00
2022-12-09T07:28:35.731Z,17.45
2022-12-09T07:31:03.773Z,17.20
2022-12-09T07:33:31.267Z,17.10
2022-12-09T07:35:59.571Z,18.65
2022-12-09T07:38:27.172Z,20.15
2022-12-09T07:40:54.486Z,18.40
2022-12-09T07:43:22.448Z,18.33
2022-12-09T07:45:50.084Z,17.27
2022-12-09T07:48:17.767Z,13.50
2022-12-09T07:50:45.354Z,16.38
2022-12-09T07:53:12.913Z,15.18
2022-12-09T07:55:40.627Z,14.77
2022-12-09T07:58:07.883Z,17.42
2022-12-09T08:00:35.342Z,16.15
2022-12-09T08:03:02.680Z,13.07
2022-12-09T08:05:30.214Z,15.50
2022-12-09T08:07:57.858Z,16.40
2022-12-09T08:10:25.416Z,15.43
2022-12-09T08:12:53.024Z,16.20
2022-12-09T08:15:20.328Z,12.40
2022-12-09T08:17:48.119Z,15.82
2022-12-09T08:20:15.929Z,15.65
2022-12-09T08:22:44.152Z,15.95
2022-12-09T08:25:11.587Z,13.77
2022-12-09T08:27:39.082Z,16.10
2022-12-09T08:30:07.813Z,17.05
2022-12-09T08:32:35.759Z,15.27
2022-12-09T08:35:03.697Z,14.13
2022-12-09T08:37:31.572Z,15.02
2022-12-09T08:39:58.980Z,17.15
2022-12-09T08:42:26.224Z,15.73
2022-12-09T08:45:00.203Z,16.13
2022-12-09T08:47:29.550Z,14.82
2022-12-09T08:49:58.420Z,15.38
2022-12-09T08:52:26.124Z,15.52
2022-12-09T08:54:53.635Z,16.90
2022-12-09T08:57:24.905Z,17.20
2022-12-09T08:59:52.515Z,17.42
2022-12-09T09:02:20.062Z,17.45
2022-12-09T09:04:47.783Z,16.42
2022-12-09T09:07:15.911Z,15.68
2022-12-09T09:09:43.267Z,18.35
2022-12-09T09:12:11.396Z,17.17
2022-12-09T09:14:38.986Z,18.15
2022-12-09T09:17:06.269Z,18.23
2022-12-09T09:19:34.258Z,16.58
2022-12-09T09:22:02.040Z,16.90
2022-12-09T09:24:29.539Z,18.60
2022-12-09T09:26:56.899Z,18.30
2022-12-09T09:29:24.866Z,19.05
2022-12-09T09:31:54.490Z,15.80
2022-12-09T09:34:23.150Z,18.75
2022-12-09T09:36:51.421Z,18.50
2022-12-09T09:39:20.006Z,17.77
2022-12-09T09:42:00.461Z,18.10
2022-12-09T09:44:34.690Z,18.88
2022-12-09T09:47:02.980Z,17.65
2022-12-09T09:49:42.898Z,19.02
2022-12-09T09:52:20.516Z,17.60
2022-12-09T09:54:48.091Z,18.42
2022-12-09T09:57:17.296Z,19.35
2022-12-09T09:59:50.926Z,15.52
2022-12-09T10:02:21.824Z,16.50
2022-12-09T10:04:57.333Z,17.60
2022-12-09T10:07:28.160Z,17.52
2022-12-09T10:10:18.816Z,18.20
2022-12-09T10:13:05.318Z,18.83
2022-12-09T10:15:42.080Z,17.58
2022-12-09T10:18:21.127Z,16.65
2022-12-09T10:20:48.853Z,18.20
2022-12-09T10:23:17.300Z,16.00
2022-12-09T10:25:47.327Z,17.00
2022-12-09T10:28:14.875Z,17.05
2022-12-09T10:30:44.553Z,18.85
2022-12-09T10:33:17.469Z,16.70
2022-12-09T10:38:14.013Z,17.38
2022-12-09T10:40:48.119Z,18.38
2022-12-09T10:43:41.078Z,19.80
2022-12-09T10:48:46.412Z,16.00
2022-12-09T10:51:16.609Z,18.33
2022-12-09T10:53:51.706Z,19.25
2022-12-09T10:56:21.027Z,19.45
2022-12-09T10:58:48.740Z,19.67
2022-12-09T11:01:17.411Z,21.58
2022-12-09T11:03:52.553Z,121.72
2022-12-09T11:06:24.888Z,18.50
2022-12-09T11:08:55.560Z,21.02
2022-12-09T11:11:43.673Z,21.90
2022-12-09T11:14:34.311Z,16.45
2022-12-09T11:17:13.835Z,21.30
2022-12-09T11:19:41.959Z,20.30
2022-12-09T11:22:23.853Z,19.98
2022-12-09T11:24:53.699Z,21.73
2022-12-09T11:27:32.006Z,22.85
2022-12-09T11:30:11.242Z,18.85
2022-12-09T11:32:57.694Z,19.92
2022-12-09T11:35:27.833Z,21.33
2022-12-09T11:37:55.435Z,21.17
2022-12-09T11:40:24.349Z,19.20
2022-12-09T11:42:53.584Z,20.23
2022-12-09T11:45:24.120Z,21.70
2022-12-09T11:48:25.839Z,23.58
2022-12-09T11:50:42.648Z,17.33
2022-12-09T11:53:12.923Z,23.00
2022-12-09T11:55:47.815Z,21.98
2022-12-09T11:58:16.805Z,24.08
2022-12-09T12:00:46.502Z,22.80
2022-12-09T12:03:16.682Z,20.38
2022-12-09T12:05:45.321Z,19.13
2022-12-09T12:08:21.713Z,23.52
2022-12-09T12:11:14.891Z,22.85
2022-12-09T12:13:53.475Z,21.70
2022-12-09T12:16:39.548Z,24.98
2022-12-09T12:19:14.460Z,22.10
2022-12-09T12:21:41.598Z,19.13
2022-12-09T12:24:08.834Z,17.48
2022-12-09T12:26:40.729Z,22.02
2022-12-09T12:29:26.784Z,20.13
2022-12-09T12:31:56.983Z,18.80
2022-12-09T12:34:37.309Z,20.83
2022-12-09T12:37:19.512Z,17.05
2022-12-09T12:39:49.634Z,23.58
2022-12-09T12:42:29.068Z,23.35
2022-12-09T12:45:37.980Z,20.88
2022-12-09T12:48:05.324Z,23.77
2022-12-09T12:50:44.504Z,23.95
2022-12-09T12:53:14.859Z,22.83
2022-12-09T12:56:00.979Z,22.33
2022-12-09T12:58:28.096Z,19.23
2022-12-09T13:01:09.066Z,23.63
2022-12-09T13:04:00.102Z,20.50
2022-12-09T13:06:35.998Z,20.77
2022-12-09T13:09:05.538Z,26.88
2022-12-09T13:11:37.690Z,26.17
2022-12-09T13:14:08.267Z,27.13
2022-12-09T13:16:36.851Z,26.85
2022-12-09T13:19:06.980Z,29.25
2022-12-09T13:21:34.361Z,30.40
2022-12-09T13:24:19.658Z,30.30
2022-12-09T13:27:05.602Z,27.27
2022-12-09T13:29:45.070Z,33.95
2022-12-09T13:32:20.768Z,33.22
2022-12-09T13:34:51.498Z,30.85
2022-12-09T13:37:37.146Z,30.00
2022-12-09T13:40:24.246Z,26.45
2022-12-09T13:43:01.369Z,29.08
2022-12-09T13:45:36.123Z,21.20
2022-12-09T13:48:16.796Z,28.38
2022-12-09T13:50:51.647Z,27.83
2022-12-09T13:53:21.909Z,30.63
2022-12-09T13:55:55.443Z,29.38
2022-12-09T13:58:38.052Z,31.30
2022-12-09T14:01:07.925Z,29.95
2022-12-09T14:03:37.697Z,30.25
2022-12-09T14:06:17.664Z,31.05
2022-12-09T14:08:47.452Z,33.58
2022-12-09T14:11:33.604Z,31.80
2022-12-09T14:14:19.529Z,30.77
2022-12-09T14:16:46.692Z,33.47
2022-12-09T14:19:26.356Z,32.85
2022-12-09T14:22:18.305Z,32.25
2022-12-09T14:24:49.460Z,34.67
2022-12-09T14:27:16.710Z,31.63
2022-12-09T14:29:43.925Z,34.03
2022-12-09T14:32:19.931Z,27.98
2022-12-09T14:34:49.456Z,27.90
2022-12-09T14:37:16.559Z,34.03
2022-12-09T14:39:57.200Z,35.78
2022-12-09T14:42:43.547Z,38.35
2022-12-09T14:45:18.259Z,32.83
2022-12-09T14:47:47.555Z,38.63
2022-12-09T14:50:23.332Z,34.30
2022-12-09T14:52:52.039Z,34.00
2022-12-09T14:55:19.749Z,31.65
2022-12-09T14:57:47.872Z,36.33
2022-12-09T15:00:27.465Z,36.00
2022-12-09T15:03:30.215Z,33.92
2022-12-09T15:05:53.572Z,31.95
2022-12-09T15:08:28.003Z,34.13
2022-12-09T15:10:55.141Z,32.35
2022-12-09T15:13:22.297Z,36.92
2022-12-09T15:15:49.609Z,37.05
2022-12-09T15:18:22.458Z,33.97
2022-12-09T15:20:51.637Z,33.58
2022-12-09T15:23:21.794Z,35.22
2022-12-09T15:25:50.552Z,35.15
2022-12-09T15:28:25.917Z,32.55
2022-12-09T15:30:58.536Z,33.83
2022-12-09T15:33:25.803Z,33.53
2022-12-09T15:36:04.051Z,34.85
2022-12-09T15:41:39.897Z,31.10
2022-12-09T15:44:08.351Z,33.88
2022-12-09T15:46:36.682Z,35.65
2022-12-09T15:49:04.839Z,35.65
2022-12-09T15:51:32.218Z,32.30
2022-12-09T15:54:01.696Z,31.55
2022-12-09T15:56:34.711Z,35.22
2022-12-09T15:59:07.781Z,35.28
2022-12-09T16:01:35.533Z,34.10
2022-12-09T16:04:03.788Z,34.40
2022-12-09T16:06:35.935Z,36.20
2022-12-09T16:09:03.804Z,30.52
2022-12-09T16:11:48.409Z,34.55
2022-12-09T16:14:17.038Z,33.83
2022-12-09T16:16:48.063Z,29.90
2022-12-09T16:19:36.313Z,31.08
2022-12-09T16:22:07.845Z,34.10
2022-12-09T16:25:06.029Z,32.10
2022-12-09T16:27:24.978Z,34.65
2022-12-09T16:29:56.807Z,32.40
2022-12-09T16:32:33.991Z,31.35
2022-12-09T16:35:13.530Z,33.50
2022-12-09T16:38:00.809Z,32.38
2022-12-09T16:40:28.725Z,30.60
2022-12-09T16:43:14.898Z,31.75
2022-12-09T16:45:42.746Z,32.13
2022-12-09T16:48:10.652Z,31.40
2022-12-09T16:50:39.893Z,30.08
2022-12-09T16:53:12.888Z,29.92
2022-12-09T16:55:40.373Z,32.50
2022-12-09T16:58:07.528Z,30.75
2022-12-09T17:00:34.688Z,28.92
2022-12-09T17:03:07.829Z,30.10
2022-12-09T17:05:35.063Z,28.87
2022-12-09T17:08:02.471Z,31.05
2022-12-09T17:10:29.718Z,28.17
2022-12-09T17:13:15.927Z,28.30
2022-12-09T17:15:53.011Z,32.67
2022-12-09T17:18:20.269Z,30.60
2022-12-09T17:20:47.361Z,29.90
2022-12-09T17:23:14.608Z,125.65
2022-12-09T17:25:41.823Z,29.33
2022-12-09T17:28:08.956Z,27.77
2022-12-09T17:30:39.514Z,27.70
2022-12-09T17:33:06.706Z,24.60
2022-12-09T17:35:37.939Z,27.52
2022-12-09T17:38:05.028Z,25.02
2022-12-09T17:40:32.361Z,26.83
2022-12-09T17:42:59.526Z,27.70
2022-12-09T17:45:26.830Z,26.35
2022-12-09T17:47:54.234Z,26.98
2022-12-09T17:50:21.591Z,26.95
2022-12-09T17:52:48.732Z,27.27
2022-12-09T17:55:15.926Z,25.63
2022-12-09T17:57:43.150Z,26.30
2022-12-09T18:00:11.053Z,27.08
2022-12-09T18:02:38.689Z,31.05
2022-12-09T18:05:06.098Z,26.45
2022-12-09T18:07:33.276Z,22.02
2022-12-09T18:10:00.545Z,26.98
2022-12-09T18:12:27.713Z,26.85
2022-12-09T18:14:54.903Z,28.58
2022-12-09T18:17:22.155Z,27.77
2022-12-09T18:19:49.281Z,27.67
2022-12-09T18:22:16.434Z,28.38
2022-12-09T18:24:43.563Z,29.08
2022-12-09T18:27:10.717Z,26.35
2022-12-09T18:29:40.783Z,25.17
2022-12-09T18:32:08.226Z,26.35
2022-12-09T18:34:35.753Z,25.63
2022-12-09T18:37:03.735Z,26.45
2022-12-09T18:39:30.846Z,25.88
2022-12-09T18:41:58.044Z,25.95
2022-12-09T18:44:25.684Z,25.63
2022-12-09T18:46:53.063Z,25.65
2022-12-09T18:49:21.797Z,24.70
2022-12-09T18:51:50.204Z,26.55
2022-12-09T18:54:28.119Z,24.60
2022-12-09T18:56:56.160Z,26.83
2022-12-09T18:59:25.443Z,25.25
2022-12-09T19:01:52.991Z,24.20
2022-12-09T19:04:21.575Z,24.45
2022-12-09T19:06:49.633Z,25.10
2022-12-09T19:09:17.872Z,25.83
2022-12-09T19:11:46.074Z,22.73
2022-12-09T19:14:14.209Z,24.45
2022-12-09T19:16:41.899Z,25.17
2022-12-09T19:19:10.817Z,26.55
2022-12-09T19:21:38.255Z,26.92
2022-12-09T19:24:05.754Z,25.67
2022-12-09T19:26:33.528Z,27.73
2022-12-09T19:29:02.293Z,24.75
2022-12-09T19:31:31.523Z,26.35
2022-12-09T19:34:00.098Z,25.77
2022-12-09T19:36:28.371Z,25.13
2022-12-09T19:38:55.885Z,26.00
2022-12-09T19:41:22.984Z,25.48
2022-12-09T19:43:54.624Z,24.42
2022-12-09T19:46:21.893Z,24.70
2022-12-09T19:48:49.081Z,25.95
2022-12-09T19:51:17.335Z,23.70
2022-12-09T19:53:45.246Z,25.63
2022-12-09T19:56:13.864Z,27.48
2022-12-09T19:58:41.574Z,24.80
2022-12-09T20:01:10.525Z,27.85
2022-12-09T20:03:41.717Z,28.95
2022-12-09T20:06:10.421Z,29.17
2022-12-09T20:08:38.321Z,27.90
2022-12-09T20:11:06.011Z,27.75
2022-12-09T20:13:33.269Z,26.00
2022-12-09T20:16:04.129Z,27.92
2022-12-09T20:18:31.379Z,25.23
2022-12-09T20:21:01.394Z,26.70
2022-12-09T20:23:28.854Z,28.00
2022-12-09T20:25:56.133Z,27.90
2022-12-09T20:28:23.333Z,25.70
2022-12-09T20:30:51.364Z,25.35
2022-12-09T20:33:18.553Z,27.48
2022-12-09T20:35:45.646Z,26.20
2022-12-09T20:38:12.924Z,26.50
2022-12-09T20:40:40.943Z,25.48
2022-12-09T20:43:08.195Z,25.08
2022-12-09T20:45:38.707Z,25.75
2022-12-09T20:48:06.047Z,26.20
2022-12-09T20:50:38.631Z,25.35
2022-12-09T20:53:06.356Z,25.70
2022-12-09T20:55:33.534Z,24.67
2022-12-09T20:58:00.661Z,23.88
2022-12-09T21:00:27.805Z,26.75
2022-12-09T21:02:54.917Z,25.23
2022-12-09T21:05:22.105Z,25.25
2022-12-09T21:07:49.307Z,23.02
2022-12-09T21:10:16.610Z,21.85
2022-12-09T21:12:44.152Z,24.35
2022-12-09T21:15:12.190Z,24.38
2022-12-09T21:17:39.383Z,22.10
2022-12-09T21:20:07.334Z,24.63
2022-12-09T21:22:35.341Z,25.05
2022-12-09T21:25:02.478Z,23.00
2022-12-09T21:27:29.718Z,24.02
2022-12-09T21:29:56.826Z,23.55
2022-12-09T21:32:23.970Z,25.00
2022-12-09T21:34:51.200Z,25.45
2022-12-09T21:37:18.323Z,26.00
2022-12-09T21:39:45.428Z,25.60
2022-12-09T21:42:12.653Z,24.52
2022-12-09T21:44:42.240Z,25.20
2022-12-09T21:47:09.466Z,25.58
2022-12-09T21:49:36.651Z,25.05
2022-12-09T21:52:06.555Z,25.00
2022-12-09T21:54:34.167Z,25.08
2022-12-09T21:57:01.283Z,25.77
2022-12-09T21:59:28.519Z,24.67
2022-12-09T22:01:56.170Z,24.85
2022-12-09T22:04:23.372Z,25.55
2022-12-09T22:06:51.168Z,24.40
2022-12-09T22:09:21.032Z,24.45
2022-12-09T22:11:48.302Z,25.30
2022-12-09T22:14:15.553Z,25.95
2022-12-09T22:16:44.071Z,25.95
2022-12-09T22:19:13.826Z,26.85
2022-12-09T22:21:41.069Z,26.17
2022-12-09T22:24:09.281Z,27.55
2022-12-09T22:26:36.543Z,26.67
2022-12-09T22:29:04.866Z,27.38
2022-12-09T22:31:34.042Z,27.02
2022-12-09T22:34:02.713Z,26.67
2022-12-09T22:36:30.070Z,26.48
2022-12-09T22:38:57.478Z,27.25
2022-12-09T22:41:25.739Z,27.25
2022-12-09T22:43:54.079Z,25.73
2022-12-09T22:46:23.000Z,26.05
2022-12-09T22:48:50.159Z,26.40
2022-12-09T22:51:19.022Z,24.88
2022-12-09T22:53:46.260Z,26.83
2022-12-09T22:56:13.567Z,26.48
2022-12-09T22:58:41.016Z,25.15
2022-12-09T23:01:15.748Z,23.75
2022-12-09T23:03:43.128Z,24.77
2022-12-09T23:06:10.824Z,24.50
2022-12-09T23:08:38.790Z,23.67
2022-12-09T23:11:07.977Z,24.88
2022-12-09T23:13:40.646Z,24.48
2022-12-09T23:16:11.797Z,24.98
2022-12-09T23:18:39.189Z,25.08
2022-12-09T23:21:07.975Z,24.40
2022-12-09T23:23:35.139Z,25.27
2022-12-09T23:26:04.894Z,24.13
2022-12-09T23:28:33.259Z,25.08
2022-12-09T23:31:02.482Z,25.83
2022-12-09T23:33:29.773Z,26.10
2022-12-09T23:35:56.934Z,25.15
2022-12-09T23:38:24.163Z,23.88
2022-12-09T23:40:52.175Z,23.73
2022-12-09T23:43:19.882Z,25.20
2022-12-09T23:45:47.133Z,25.20
2022-12-09T23:48:14.282Z,24.60
2022-12-09T23:50:41.449Z,25.25
2022-12-09T23:53:08.639Z,24.90
2022-12-09T23:55:35.798Z,25.23
2022-12-09T23:58:02.978Z,44.25
